createdAt,value
2023-02-12T00:01:40.551Z,7.40
2023-02-12T00:04:10.256Z,7.40
2023-02-12T00:06:40.375Z,7.40
2023-02-12T00:09:08.699Z,7.40
2023-02-12T00:11:38.262Z,7.40
2023-02-12T00:14:06.570Z,7.40
2023-02-12T00:16:34.865Z,7.40
2023-02-12T00:19:03.184Z,7.50
2023-02-12T00:21:32.891Z,7.40
2023-02-12T00:24:01.223Z,7.40
2023-02-12T00:26:29.758Z,7.40
2023-02-12T00:28:58.282Z,7.40
2023-02-12T00:31:29.312Z,7.40
2023-02-12T00:33:58.366Z,7.40
2023-02-12T00:36:30.556Z,7.40
2023-02-12T00:39:00.870Z,7.40
2023-02-12T00:41:29.866Z,7.40
2023-02-12T00:43:58.244Z,7.40
2023-02-12T00:46:26.667Z,7.40
2023-02-12T00:48:55.000Z,7.40
2023-02-12T00:51:23.365Z,7.40
2023-02-12T00:53:51.690Z,7.30
2023-02-12T00:56:21.354Z,7.30
2023-02-12T00:58:49.733Z,7.30
2023-02-12T01:01:18.880Z,7.30
2023-02-12T01:03:47.292Z,7.30
2023-02-12T01:06:15.669Z,7.30
2023-02-12T01:08:44.039Z,7.30
2023-02-12T01:11:14.870Z,7.30
2023-02-12T01:13:44.601Z,7.30
2023-02-12T01:16:17.850Z,7.30
2023-02-12T01:18:47.078Z,7.30
2023-02-12T01:21:19.168Z,7.30
2023-02-12T01:23:49.205Z,7.30
2023-02-12T01:26:19.768Z,7.30
2023-02-12T01:28:54.840Z,7.30
2023-02-12T01:31:26.112Z,7.30
2023-02-12T01:33:56.771Z,7.20
2023-02-12T01:36:25.934Z,7.30
2023-02-12T01:38:54.313Z,7.30
2023-02-12T01:41:25.042Z,7.30
2023-02-12T01:44:21.220Z,7.30
2023-02-12T01:46:52.009Z,7.20
2023-02-12T01:49:25.501Z,7.20
2023-02-12T01:51:59.267Z,7.20
2023-02-12T01:54:28.399Z,7.20
2023-02-12T01:56:57.050Z,7.20
2023-02-12T01:59:27.166Z,7.20
2023-02-12T02:01:56.806Z,7.20
2023-02-12T02:04:30.595Z,7.20
2023-02-12T02:07:01.204Z,7.20
2023-02-12T02:09:31.561Z,7.20
2023-02-12T02:12:17.616Z,7.20
2023-02-12T02:14:49.919Z,7.20
2023-02-12T02:17:43.686Z,7.10
2023-02-12T02:20:52.051Z,7.00
2023-02-12T02:24:06.348Z,7.10
2023-02-12T02:27:10.164Z,7.10
2023-02-12T02:30:14.541Z,7.00
2023-02-12T02:32:52.404Z,6.90
2023-02-12T02:35:29.540Z,7.00
2023-02-12T02:38:09.910Z,7.00
2023-02-12T02:40:47.310Z,7.00
2023-02-12T02:43:21.609Z,6.90
2023-02-12T02:45:53.938Z,6.90
2023-02-12T02:48:28.798Z,6.90
2023-02-12T02:51:03.049Z,6.90
2023-02-12T02:53:35.367Z,6.90
2023-02-12T02:56:08.572Z,6.80
2023-02-12T02:58:41.193Z,6.80
2023-02-12T03:01:15.763Z,6.80
2023-02-12T03:03:50.869Z,6.90
2023-02-12T03:06:28.229Z,7.00
2023-02-12T03:09:01.428Z,6.90
2023-02-12T03:11:33.632Z,6.90
2023-02-12T03:14:09.016Z,6.80
2023-02-12T03:16:44.023Z,6.80
2023-02-12T03:19:20.504Z,6.80
2023-02-12T03:21:55.595Z,6.80
2023-02-12T03:24:30.313Z,6.80
2023-02-12T03:27:05.629Z,6.80
2023-02-12T03:29:34.220Z,6.80
2023-02-12T03:32:22.021Z,6.80
2023-02-12T03:34:57.121Z,6.90
2023-02-12T03:37:32.862Z,6.90
2023-02-12T03:40:15.037Z,6.90
2023-02-12T03:42:53.731Z,6.90
2023-02-12T03:45:39.609Z,6.80
2023-02-12T03:48:12.990Z,6.80
2023-02-12T03:50:53.723Z,6.90
2023-02-12T03:53:22.461Z,6.90
2023-02-12T03:55:57.716Z,6.70
2023-02-12T03:58:30.868Z,6.80
2023-02-12T04:00:59.583Z,6.80
2023-02-12T04:03:28.810Z,6.80
2023-02-12T04:05:58.547Z,6.80
2023-02-12T04:08:28.630Z,6.80
2023-02-12T04:11:08.962Z,6.70
2023-02-12T04:13:55.601Z,6.80
2023-02-12T04:16:31.845Z,6.80
2023-02-12T04:19:00.659Z,6.80
2023-02-12T04:21:58.684Z,6.70
2023-02-12T04:24:36.685Z,6.80
2023-02-12T04:27:13.958Z,6.70
2023-02-12T04:29:51.859Z,6.80
2023-02-12T04:32:26.631Z,6.80
2023-02-12T04:35:02.523Z,6.70
2023-02-12T04:37:38.355Z,6.70
2023-02-12T04:40:11.274Z,6.80
2023-02-12T04:42:44.279Z,6.80
2023-02-12T04:45:14.019Z,6.80
2023-02-12T04:47:42.368Z,6.80
2023-02-12T04:50:11.914Z,6.80
2023-02-12T04:52:41.641Z,6.80
2023-02-12T04:55:10.170Z,6.80
2023-02-12T04:57:38.453Z,6.80
2023-02-12T05:00:09.130Z,6.80
2023-02-12T05:02:37.447Z,6.90
2023-02-12T05:05:06.405Z,6.90
2023-02-12T05:07:34.728Z,6.80
2023-02-12T05:10:04.996Z,6.80
2023-02-12T05:12:33.316Z,6.90
2023-02-12T05:15:01.720Z,6.90
2023-02-12T05:17:30.077Z,6.90
2023-02-12T05:19:58.428Z,6.90
2023-02-12T05:22:26.833Z,6.90
2023-02-12T05:24:55.256Z,6.90
2023-02-12T05:27:24.900Z,6.90
2023-02-12T05:29:53.305Z,6.90
2023-02-12T05:32:21.636Z,6.90
2023-02-12T05:34:50.060Z,6.80
2023-02-12T05:37:18.378Z,6.80
2023-02-12T05:39:46.691Z,6.90
2023-02-12T05:42:14.995Z,6.90
2023-02-12T05:44:44.816Z,6.80
2023-02-12T05:47:13.168Z,6.90
2023-02-12T05:49:42.852Z,6.90
2023-02-12T05:52:11.300Z,6.90
2023-02-12T05:54:39.652Z,6.90
2023-02-12T05:57:08.825Z,6.90
2023-02-12T05:59:37.396Z,6.80
2023-02-12T06:02:07.012Z,6.90
2023-02-12T06:04:35.337Z,6.80
2023-02-12T06:07:03.700Z,6.80
2023-02-12T06:09:32.183Z,6.80
2023-02-12T06:12:00.560Z,6.80
2023-02-12T06:14:31.547Z,6.80
2023-02-12T06:17:00.267Z,6.70
2023-02-12T06:19:29.887Z,6.70
2023-02-12T06:21:58.182Z,6.70
2023-02-12T06:24:26.830Z,6.70
2023-02-12T06:26:55.239Z,6.70
2023-02-12T06:29:23.988Z,6.60
2023-02-12T06:31:52.527Z,6.70
2023-02-12T06:34:21.062Z,6.60
2023-02-12T06:36:50.762Z,6.60
2023-02-12T06:39:19.551Z,6.60
2023-02-12T06:41:47.875Z,6.60
2023-02-12T06:44:16.298Z,6.60
2023-02-12T06:46:44.734Z,6.60
2023-02-12T06:49:14.505Z,6.60
2023-02-12T06:51:43.330Z,6.60
2023-02-12T06:54:18.180Z,6.60
2023-02-12T06:56:46.770Z,6.60
2023-02-12T06:59:17.754Z,6.60
2023-02-12T07:01:46.799Z,6.50
2023-02-12T07:04:15.698Z,6.50
2023-02-12T07:06:44.101Z,6.60
2023-02-12T07:09:12.510Z,6.60
2023-02-12T07:11:42.291Z,6.50
2023-02-12T07:14:15.942Z,6.50
2023-02-12T07:16:44.775Z,6.60
2023-02-12T07:19:15.147Z,6.60
2023-02-12T07:21:43.601Z,6.60
2023-02-12T07:24:13.082Z,6.60
2023-02-12T07:26:43.469Z,6.60
2023-02-12T07:29:12.789Z,6.60
2023-02-12T07:31:42.933Z,6.60
2023-02-12T07:34:12.559Z,6.60
2023-02-12T07:36:40.899Z,6.60
2023-02-12T07:39:09.372Z,6.60
2023-02-12T07:41:38.146Z,6.60
2023-02-12T07:44:12.855Z,6.60
2023-02-12T07:46:45.664Z,6.60
2023-02-12T07:49:18.234Z,6.70
2023-02-12T07:51:47.640Z,6.70
2023-02-12T07:54:16.836Z,6.70
2023-02-12T07:56:47.650Z,6.80
2023-02-12T07:59:19.283Z,6.80
2023-02-12T08:01:49.508Z,6.80
2023-02-12T08:04:21.411Z,6.90
2023-02-12T08:06:53.599Z,7.00
2023-02-12T08:09:25.624Z,7.00
2023-02-12T08:11:54.660Z,7.00
2023-02-12T08:14:24.697Z,7.00
2023-02-12T08:16:53.507Z,7.00
2023-02-12T08:19:26.129Z,7.10
2023-02-12T08:21:56.879Z,7.10
2023-02-12T08:24:25.909Z,7.20
2023-02-12T08:26:54.461Z,7.20
2023-02-12T08:29:26.971Z,7.20
2023-02-12T08:31:58.913Z,7.30
2023-02-12T08:34:29.814Z,7.30
2023-02-12T08:36:59.018Z,7.40
2023-02-12T08:39:30.792Z,7.40
2023-02-12T08:42:00.758Z,7.40
2023-02-12T08:44:31.024Z,7.50
2023-02-12T08:46:59.534Z,7.50
2023-02-12T08:49:30.247Z,7.50
2023-02-12T08:52:01.936Z,7.60
2023-02-12T08:54:32.787Z,7.60
2023-02-12T08:57:04.243Z,7.70
2023-02-12T08:59:33.934Z,7.70
2023-02-12T09:02:04.147Z,7.70
2023-02-12T09:04:32.745Z,7.70
2023-02-12T09:07:01.180Z,7.80
2023-02-12T09:09:29.603Z,7.80
2023-02-12T09:11:57.967Z,7.90
2023-02-12T09:14:26.371Z,7.90
2023-02-12T09:16:58.276Z,7.90
2023-02-12T09:19:27.116Z,8.00
2023-02-12T09:21:57.239Z,8.00
2023-02-12T09:24:27.755Z,8.00
2023-02-12T09:26:57.031Z,8.10
2023-02-12T09:29:25.438Z,8.10
2023-02-12T09:31:55.350Z,8.10
2023-02-12T09:34:23.810Z,8.20
2023-02-12T09:36:52.121Z,8.20
2023-02-12T09:39:20.478Z,8.20
2023-02-12T09:42:22.734Z,8.20
2023-02-12T09:45:01.486Z,8.20
2023-02-12T09:47:39.536Z,8.30
2023-02-12T09:50:28.847Z,8.30
2023-02-12T09:52:59.284Z,8.30
2023-02-12T09:55:32.360Z,8.30
2023-02-12T09:58:02.556Z,8.40
2023-02-12T10:00:32.863Z,8.40
2023-02-12T10:03:06.007Z,8.50
2023-02-12T10:05:40.002Z,8.40
2023-02-12T10:08:44.622Z,8.50
2023-02-12T10:11:46.353Z,8.50
2023-02-12T10:14:42.256Z,8.50
2023-02-12T10:17:21.302Z,8.50
2023-02-12T10:20:34.690Z,8.60
2023-02-12T10:23:21.628Z,8.60
2023-02-12T10:25:54.333Z,8.60
2023-02-12T10:28:28.124Z,8.60
2023-02-12T10:31:00.764Z,8.70
2023-02-12T10:33:34.585Z,8.70
2023-02-12T10:36:20.355Z,8.70
2023-02-12T10:38:54.553Z,8.70
2023-02-12T10:41:24.992Z,8.80
2023-02-12T10:43:54.066Z,8.80
2023-02-12T10:46:22.407Z,8.80
2023-02-12T10:48:55.222Z,8.80
2023-02-12T10:51:50.164Z,8.80
2023-02-12T10:54:40.259Z,8.80
2023-02-12T10:57:16.357Z,8.80
2023-02-12T10:59:46.078Z,8.90
2023-02-12T11:02:33.823Z,8.90
2023-02-12T11:05:25.502Z,8.90
2023-02-12T11:07:54.071Z,9.00
2023-02-12T11:10:29.026Z,9.00
2023-02-12T11:12:58.365Z,9.00
2023-02-12T11:15:36.588Z,9.10
2023-02-12T11:18:07.582Z,9.10
2023-02-12T11:20:41.290Z,9.10
2023-02-12T11:23:29.863Z,9.20
2023-02-12T11:26:02.358Z,9.20
2023-02-12T11:28:32.580Z,9.20
2023-02-12T11:31:03.367Z,9.20
2023-02-12T11:33:35.428Z,9.20
2023-02-12T11:36:16.072Z,9.20
2023-02-12T11:38:54.459Z,9.20
2023-02-12T11:41:30.842Z,9.20
2023-02-12T11:43:59.859Z,9.20
2023-02-12T11:46:29.756Z,9.20
2023-02-12T11:49:00.822Z,9.30
2023-02-12T11:51:31.627Z,9.30
2023-02-12T11:54:06.259Z,9.30
2023-02-12T11:56:47.313Z,9.30
2023-02-12T11:59:34.682Z,9.30
2023-02-12T12:02:18.208Z,9.30
2023-02-12T12:04:49.442Z,9.30
2023-02-12T12:07:23.234Z,9.30
2023-02-12T12:10:00.223Z,9.30
2023-02-12T12:12:39.118Z,9.30
2023-02-12T12:15:31.331Z,9.30
2023-02-12T12:18:24.881Z,9.30
2023-02-12T12:20:58.228Z,9.30
2023-02-12T12:23:37.711Z,9.30
2023-02-12T12:26:12.354Z,9.40
2023-02-12T12:28:47.136Z,9.40
2023-02-12T12:31:18.811Z,9.50
2023-02-12T12:33:51.292Z,9.40
2023-02-12T12:37:16.675Z,9.50
2023-02-12T12:40:15.845Z,9.50
2023-02-12T12:43:15.082Z,9.40
2023-02-12T12:46:31.740Z,9.40
2023-02-12T12:49:30.585Z,9.40
2023-02-12T12:52:22.344Z,9.50
2023-02-12T12:55:14.112Z,9.50
2023-02-12T12:57:56.798Z,9.50
2023-02-12T13:00:45.215Z,9.50
2023-02-12T13:03:52.895Z,9.50
2023-02-12T13:06:50.369Z,9.50
2023-02-12T13:09:47.685Z,9.50
2023-02-12T13:12:43.300Z,9.50
2023-02-12T13:15:29.067Z,9.50
2023-02-12T13:18:10.900Z,9.60
2023-02-12T13:20:48.839Z,9.60
2023-02-12T13:23:22.537Z,9.60
2023-02-12T13:26:03.736Z,9.60
2023-02-12T13:28:37.538Z,9.60
2023-02-12T13:31:31.851Z,9.60
2023-02-12T13:34:02.576Z,9.70
2023-02-12T13:36:30.953Z,9.70
2023-02-12T13:39:06.298Z,9.70
2023-02-12T13:41:36.598Z,9.70
2023-02-12T13:44:17.593Z,9.70
2023-02-12T13:46:57.133Z,9.70
2023-02-12T13:49:39.266Z,9.70
2023-02-12T13:52:15.447Z,9.70
2023-02-12T13:54:58.562Z,9.70
2023-02-12T13:57:26.998Z,9.80
2023-02-12T13:59:58.295Z,9.80
2023-02-12T14:02:44.858Z,9.80
2023-02-12T14:05:29.312Z,9.70
2023-02-12T14:08:02.113Z,9.70
2023-02-12T14:10:35.086Z,9.70
2023-02-12T14:13:34.139Z,9.70
2023-02-12T14:16:38.008Z,9.70
2023-02-12T14:19:53.979Z,9.70
2023-02-12T14:23:03.143Z,9.70
2023-02-12T14:25:45.155Z,9.70
2023-02-12T14:28:26.960Z,9.60
2023-02-12T14:31:45.363Z,9.60
2023-02-12T14:34:41.132Z,9.60
2023-02-12T14:37:35.956Z,9.50
2023-02-12T14:40:51.924Z,9.60
2023-02-12T14:43:54.822Z,9.50
2023-02-12T14:46:48.581Z,9.50
2023-02-12T14:49:27.689Z,9.50
2023-02-12T14:52:01.828Z,9.50
2023-02-12T14:54:35.560Z,9.50
2023-02-12T14:57:10.162Z,9.50
2023-02-12T14:59:42.908Z,9.50
2023-02-12T15:02:21.514Z,9.50
2023-02-12T15:04:52.273Z,9.50
2023-02-12T15:07:37.346Z,9.50
2023-02-12T15:10:11.123Z,9.50
2023-02-12T15:12:44.332Z,9.50
2023-02-12T15:15:22.870Z,9.50
2023-02-12T15:17:59.732Z,9.50
2023-02-12T15:20:36.715Z,9.50
2023-02-12T15:23:37.270Z,9.50
2023-02-12T15:26:07.785Z,9.40
2023-02-12T15:28:38.380Z,9.40
2023-02-12T15:31:10.762Z,9.40
2023-02-12T15:33:46.869Z,9.40
2023-02-12T15:36:21.705Z,9.40
2023-02-12T15:38:53.546Z,9.40
2023-02-12T15:41:37.539Z,9.40
2023-02-12T15:44:21.309Z,9.40
2023-02-12T15:47:14.545Z,9.40
2023-02-12T15:49:45.137Z,9.40
2023-02-12T15:52:24.802Z,9.30
2023-02-12T15:54:53.712Z,9.30
2023-02-12T15:57:25.281Z,9.30
2023-02-12T15:59:56.671Z,9.30
2023-02-12T16:02:30.863Z,9.30
2023-02-12T16:05:03.673Z,9.30
2023-02-12T16:07:38.097Z,9.30
2023-02-12T16:10:08.381Z,9.30
2023-02-12T16:12:38.943Z,9.30
2023-02-12T16:15:09.006Z,9.20
2023-02-12T16:17:38.699Z,9.20
2023-02-12T16:20:27.165Z,9.20
2023-02-12T16:22:56.400Z,9.20
2023-02-12T16:25:28.274Z,9.20
2023-02-12T16:28:01.523Z,9.10
2023-02-12T16:30:33.545Z,9.10
2023-02-12T16:33:03.075Z,9.10
2023-02-12T16:35:35.556Z,9.10
2023-02-12T16:38:31.605Z,9.10
2023-02-12T16:41:23.537Z,9.10
2023-02-12T16:44:22.550Z,9.00
2023-02-12T16:46:53.737Z,9.00
2023-02-12T16:49:25.621Z,9.00
2023-02-12T16:52:19.683Z,9.00
2023-02-12T16:54:47.991Z,8.90
2023-02-12T16:57:16.240Z,9.00
2023-02-12T16:59:45.322Z,9.00
2023-02-12T17:02:16.205Z,8.90
2023-02-12T17:04:44.902Z,8.90
2023-02-12T17:07:23.265Z,8.90
2023-02-12T17:09:52.012Z,8.80
2023-02-12T17:12:20.555Z,8.80
2023-02-12T17:14:49.101Z,8.80
2023-02-12T17:17:17.697Z,8.80
2023-02-12T17:19:46.168Z,8.80
2023-02-12T17:22:23.703Z,8.80
2023-02-12T17:24:53.294Z,8.80
2023-02-12T17:27:22.239Z,8.80
2023-02-12T17:29:50.605Z,8.80
2023-02-12T17:32:19.029Z,8.70
2023-02-12T17:34:48.819Z,8.70
2023-02-12T17:37:22.229Z,8.70
2023-02-12T17:39:50.484Z,8.70
2023-02-12T17:42:19.049Z,8.70
2023-02-12T17:44:47.337Z,8.70
2023-02-12T17:47:15.661Z,8.70
2023-02-12T17:49:44.158Z,8.60
2023-02-12T17:52:12.631Z,8.70
2023-02-12T17:54:45.532Z,8.60
2023-02-12T17:57:14.885Z,8.60
2023-02-12T17:59:43.410Z,8.60
2023-02-12T18:02:12.752Z,8.60
2023-02-12T18:04:43.819Z,8.60
2023-02-12T18:07:11.957Z,8.60
2023-02-12T18:09:41.682Z,8.60
2023-02-12T18:12:10.375Z,8.60
2023-02-12T18:14:38.873Z,8.50
2023-02-12T18:17:07.274Z,8.60
2023-02-12T18:19:38.657Z,8.60
2023-02-12T18:22:06.972Z,8.50
2023-02-12T18:24:35.569Z,8.50
2023-02-12T18:27:05.516Z,8.50
2023-02-12T18:29:34.129Z,8.50
2023-02-12T18:32:02.712Z,8.50
2023-02-12T18:34:31.252Z,8.50
2023-02-12T18:36:59.603Z,8.50
2023-02-12T18:39:29.163Z,8.50
2023-02-12T18:41:57.561Z,8.40
2023-02-12T18:44:27.361Z,8.40
2023-02-12T18:46:57.349Z,8.40
2023-02-12T18:49:25.848Z,8.40
2023-02-12T18:51:54.750Z,8.40
2023-02-12T18:54:23.074Z,8.40
2023-02-12T18:56:54.243Z,8.30
2023-02-12T18:59:24.244Z,8.30
2023-02-12T19:01:55.620Z,8.30
2023-02-12T19:04:27.844Z,8.30
2023-02-12T19:06:56.505Z,8.30
2023-02-12T19:09:27.560Z,8.30
2023-02-12T19:11:57.253Z,8.30
2023-02-12T19:14:27.840Z,8.30
2023-02-12T19:16:57.682Z,8.20
2023-02-12T19:19:26.926Z,8.20
2023-02-12T19:21:56.310Z,8.20
2023-02-12T19:24:24.901Z,8.20
2023-02-12T19:26:55.652Z,8.10
2023-02-12T19:29:24.100Z,8.20
2023-02-12T19:31:52.509Z,8.20
2023-02-12T19:34:24.889Z,8.10
2023-02-12T19:36:53.536Z,8.10
2023-02-12T19:39:24.870Z,8.10
2023-02-12T19:41:56.197Z,8.00
2023-02-12T19:44:26.446Z,8.10
2023-02-12T19:46:54.955Z,8.10
2023-02-12T19:49:27.320Z,8.00
2023-02-12T19:51:56.205Z,8.00
2023-02-12T19:54:26.163Z,8.00
2023-02-12T19:56:55.248Z,7.90
2023-02-12T19:59:26.014Z,8.00
2023-02-12T20:01:56.169Z,8.00
2023-02-12T20:04:26.577Z,7.90
2023-02-12T20:06:54.974Z,7.90
2023-02-12T20:09:24.029Z,7.90
2023-02-12T20:11:53.414Z,7.90
2023-02-12T20:14:22.698Z,7.80
2023-02-12T20:16:52.202Z,7.90
2023-02-12T20:19:23.806Z,7.90
2023-02-12T20:21:55.829Z,7.90
2023-02-12T20:24:26.108Z,7.80
2023-02-12T20:26:55.422Z,7.80
2023-02-12T20:29:23.854Z,7.80
2023-02-12T20:31:52.944Z,7.80
2023-02-12T20:34:22.365Z,7.70
2023-02-12T20:36:53.988Z,7.70
2023-02-12T20:39:23.101Z,7.70
2023-02-12T20:41:51.671Z,7.60
2023-02-12T20:44:22.512Z,7.60
2023-02-12T20:46:56.416Z,7.60
2023-02-12T20:49:26.084Z,7.60
2023-02-12T20:51:55.978Z,7.60
2023-02-12T20:54:24.507Z,7.60
2023-02-12T20:56:54.352Z,7.60
2023-02-12T20:59:22.701Z,7.60
2023-02-12T21:01:51.218Z,7.60
2023-02-12T21:04:20.959Z,7.60
2023-02-12T21:06:49.609Z,7.60
2023-02-12T21:09:19.926Z,7.60
2023-02-12T21:11:49.073Z,7.50
2023-02-12T21:14:23.664Z,7.60
2023-02-12T21:16:54.018Z,7.60
2023-02-12T21:19:23.537Z,7.60
2023-02-12T21:21:52.205Z,7.60
2023-02-12T21:24:24.852Z,7.50
2023-02-12T21:26:55.189Z,7.50
2023-02-12T21:29:26.624Z,7.60
2023-02-12T21:31:55.605Z,7.60
2023-02-12T21:34:25.304Z,7.60
2023-02-12T21:36:56.863Z,7.60
2023-02-12T21:39:28.943Z,7.60
2023-02-12T21:42:00.034Z,7.60
2023-02-12T21:44:28.633Z,7.60
2023-02-12T21:46:58.656Z,7.60
2023-02-12T21:49:28.241Z,7.60
2023-02-12T21:51:59.273Z,7.50
2023-02-12T21:54:29.667Z,7.60
2023-02-12T21:56:58.926Z,7.60
2023-02-12T21:59:29.510Z,7.60
2023-02-12T22:01:59.230Z,7.60
2023-02-12T22:04:28.465Z,7.50
2023-02-12T22:06:58.147Z,7.50
2023-02-12T22:09:28.033Z,7.40
2023-02-12T22:11:56.414Z,7.30
2023-02-12T22:14:24.838Z,7.30
2023-02-12T22:16:53.182Z,7.30
2023-02-12T22:19:21.583Z,7.30
2023-02-12T22:21:52.528Z,7.30
2023-02-12T22:24:21.088Z,7.20
2023-02-12T22:26:50.896Z,7.20
2023-02-12T22:29:19.458Z,7.20
2023-02-12T22:31:48.679Z,7.20
2023-02-12T22:34:19.596Z,7.20
2023-02-12T22:36:49.240Z,7.10
2023-02-12T22:39:19.316Z,7.20
2023-02-12T22:41:48.167Z,7.20
2023-02-12T22:44:20.808Z,7.20
2023-02-12T22:46:50.211Z,7.20
2023-02-12T22:49:18.902Z,7.10
2023-02-12T22:51:47.555Z,7.10
2023-02-12T22:54:18.413Z,7.10
2023-02-12T22:56:50.851Z,7.10
2023-02-12T22:59:20.598Z,7.10
2023-02-12T23:01:48.963Z,7.10
2023-02-12T23:04:18.940Z,7.00
2023-02-12T23:06:48.106Z,7.00
2023-02-12T23:09:19.029Z,7.00
2023-02-12T23:11:48.285Z,7.00
2023-02-12T23:14:16.924Z,7.00
2023-02-12T23:16:46.829Z,7.00
2023-02-12T23:19:16.579Z,6.90
2023-02-12T23:21:44.912Z,6.90
2023-02-12T23:24:15.278Z,6.90
2023-02-12T23:26:44.009Z,6.80
2023-02-12T23:29:12.604Z,6.90
2023-02-12T23:31:41.185Z,6.90
2023-02-12T23:34:11.230Z,6.90
2023-02-12T23:36:39.776Z,6.90
2023-02-12T23:39:09.572Z,6.90
2023-02-12T23:41:38.041Z,6.90
2023-02-12T23:44:07.206Z,6.90
2023-02-12T23:46:35.571Z,6.90
2023-02-12T23:49:04.219Z,6.90
2023-02-12T23:51:34.570Z,6.90
2023-02-12T23:54:03.273Z,6.80
2023-02-12T23:56:31.721Z,6.80
2023-02-12T23:59:00.051Z,6.70
